createdAt,value
2019-02-22T00:00:51.925Z,9.60
2019-02-22T00:03:19.681Z,9.60
2019-02-22T00:05:47.535Z,9.60
2019-02-22T00:08:15.277Z,9.60
2019-02-22T00:10:43.200Z,9.60
2019-02-22T00:13:11.011Z,9.60
2019-02-22T00:15:38.969Z,9.50
2019-02-22T00:18:06.748Z,9.50
2019-02-22T00:20:34.535Z,9.50
2019-02-22T00:23:02.348Z,9.50
2019-02-22T00:25:30.297Z,9.50
2019-02-22T00:27:58.049Z,9.50
2019-02-22T00:30:26.007Z,9.50
2019-02-22T00:32:53.789Z,9.50
2019-02-22T00:35:21.660Z,9.60
2019-02-22T00:37:49.601Z,9.60
2019-02-22T00:40:17.319Z,9.60
2019-02-22T00:42:45.352Z,9.60
2019-02-22T00:45:13.103Z,9.60
2019-02-22T00:47:40.835Z,9.60
2019-02-22T00:50:08.607Z,9.50
2019-02-22T00:52:36.539Z,9.50
2019-02-22T00:55:04.537Z,9.60
2019-02-22T00:57:32.442Z,9.60
2019-02-22T01:00:00.357Z,9.50
2019-02-22T01:02:28.445Z,9.50
2019-02-22T01:04:56.179Z,9.50
2019-02-22T01:07:23.948Z,9.50
2019-02-22T01:09:51.711Z,9.50
2019-02-22T01:12:19.483Z,9.50
2019-02-22T01:14:47.266Z,9.50
2019-02-22T01:17:15.196Z,9.50
2019-02-22T01:19:42.942Z,9.50
2019-02-22T01:22:10.888Z,9.50
2019-02-22T01:24:38.664Z,9.50
2019-02-22T01:27:06.616Z,9.50
2019-02-22T01:29:34.405Z,9.50
2019-02-22T01:32:02.391Z,9.50
2019-02-22T01:34:30.189Z,9.50
2019-02-22T01:36:58.010Z,9.50
2019-02-22T01:39:25.799Z,9.50
2019-02-22T01:41:53.753Z,9.50
2019-02-22T01:44:22.055Z,9.50
2019-02-22T01:46:50.031Z,9.50
2019-02-22T01:49:17.935Z,9.60
2019-02-22T01:51:45.927Z,9.60
2019-02-22T01:54:13.675Z,9.60
2019-02-22T01:56:41.499Z,9.50
2019-02-22T01:59:09.249Z,9.50
2019-02-22T02:01:37.456Z,9.50
2019-02-22T02:04:05.238Z,9.60
2019-02-22T02:06:33.199Z,9.60
2019-02-22T02:09:00.929Z,9.50
2019-02-22T02:11:28.869Z,9.50
2019-02-22T02:13:56.860Z,9.60
2019-02-22T02:16:24.652Z,9.50
2019-02-22T02:18:52.606Z,9.50
2019-02-22T02:21:20.361Z,9.50
2019-02-22T02:23:48.108Z,9.50
2019-02-22T02:26:16.098Z,9.50
2019-02-22T02:28:44.013Z,9.50
2019-02-22T02:31:11.932Z,9.50
2019-02-22T02:33:39.891Z,9.50
2019-02-22T02:36:07.675Z,9.50
2019-02-22T02:38:35.596Z,9.50
2019-02-22T02:41:08.438Z,9.50
2019-02-22T02:43:33.158Z,9.50
2019-02-22T02:46:00.961Z,9.40
2019-02-22T02:48:28.718Z,9.50
2019-02-22T02:50:56.543Z,9.50
2019-02-22T02:53:24.483Z,9.50
2019-02-22T02:55:52.216Z,9.50
2019-02-22T02:58:20.186Z,9.50
2019-02-22T03:00:47.935Z,9.50
2019-02-22T03:03:15.887Z,9.50
2019-02-22T03:06:01.652Z,9.50
2019-02-22T03:08:32.948Z,9.50
2019-02-22T03:11:00.701Z,9.50
2019-02-22T03:13:28.768Z,9.50
2019-02-22T03:15:56.530Z,9.50
2019-02-22T03:18:24.288Z,9.50
2019-02-22T03:20:52.032Z,9.40
2019-02-22T03:23:20.000Z,9.40
2019-02-22T03:25:47.986Z,9.40
2019-02-22T03:28:15.907Z,9.40
2019-02-22T03:30:43.655Z,9.40
2019-02-22T03:33:11.473Z,9.40
2019-02-22T03:35:39.266Z,9.30
2019-02-22T03:38:07.038Z,9.30
2019-02-22T03:40:34.800Z,9.40
2019-02-22T03:43:02.610Z,9.30
2019-02-22T03:45:30.358Z,9.30
2019-02-22T03:47:58.298Z,9.30
2019-02-22T03:50:26.112Z,9.30
2019-02-22T03:53:08.828Z,9.20
2019-02-22T03:55:36.754Z,9.30
2019-02-22T03:58:04.698Z,9.20
2019-02-22T04:00:32.681Z,9.20
2019-02-22T04:03:00.597Z,9.20
2019-02-22T04:05:28.392Z,9.10
2019-02-22T04:07:56.390Z,9.10
2019-02-22T04:10:24.299Z,9.10
2019-02-22T04:12:52.079Z,9.00
2019-02-22T04:15:19.840Z,9.00
2019-02-22T04:17:47.630Z,8.90
2019-02-22T04:20:15.373Z,8.90
2019-02-22T04:22:44.337Z,8.90
2019-02-22T04:25:12.407Z,8.90
2019-02-22T04:27:40.369Z,8.90
2019-02-22T04:30:08.701Z,8.80
2019-02-22T04:32:36.491Z,8.70
2019-02-22T04:35:04.636Z,8.70
2019-02-22T04:37:32.453Z,8.70
2019-02-22T04:40:00.441Z,8.70
2019-02-22T04:42:28.302Z,8.70
2019-02-22T04:44:56.035Z,8.70
2019-02-22T04:47:23.802Z,8.70
2019-02-22T04:49:51.574Z,8.70
2019-02-22T04:52:19.337Z,8.60
2019-02-22T04:54:47.249Z,8.70
2019-02-22T04:57:15.035Z,8.60
2019-02-22T04:59:42.950Z,8.60
2019-02-22T05:02:10.727Z,8.60
2019-02-22T05:04:38.637Z,8.60
2019-02-22T05:07:06.425Z,8.60
2019-02-22T05:09:34.303Z,8.60
2019-02-22T05:12:10.353Z,8.60
2019-02-22T05:14:31.747Z,8.60
2019-02-22T05:16:59.561Z,8.70
2019-02-22T05:19:27.364Z,8.60
2019-02-22T05:21:55.120Z,8.60
2019-02-22T05:24:23.093Z,8.60
2019-02-22T05:26:50.863Z,8.50
2019-02-22T05:29:18.795Z,8.50
2019-02-22T05:31:46.751Z,8.60
2019-02-22T05:34:14.473Z,8.50
2019-02-22T05:36:44.254Z,8.50
2019-02-22T05:39:19.097Z,8.60
2019-02-22T05:41:44.409Z,8.50
2019-02-22T05:44:12.392Z,8.60
2019-02-22T05:46:40.159Z,8.60
2019-02-22T05:49:08.131Z,8.50
2019-02-22T05:51:36.030Z,8.50
2019-02-22T05:54:03.788Z,8.50
2019-02-22T05:56:31.687Z,8.60
2019-02-22T05:58:59.449Z,8.60
2019-02-22T06:01:27.210Z,8.50
2019-02-22T06:03:54.972Z,8.50
2019-02-22T06:06:22.740Z,8.50
2019-02-22T06:08:50.528Z,8.60
2019-02-22T06:11:18.455Z,8.50
2019-02-22T06:13:46.235Z,8.50
2019-02-22T06:16:13.977Z,8.50
2019-02-22T06:18:41.797Z,8.50
2019-02-22T06:21:09.591Z,8.40
2019-02-22T06:23:37.377Z,8.50
2019-02-22T06:26:05.123Z,8.50
2019-02-22T06:28:32.879Z,8.50
2019-02-22T06:31:00.809Z,8.50
2019-02-22T06:33:28.583Z,8.50
2019-02-22T06:35:56.394Z,8.40
2019-02-22T06:38:24.207Z,8.40
2019-02-22T06:40:52.200Z,8.50
2019-02-22T06:43:19.919Z,8.50
2019-02-22T06:45:48.133Z,8.50
2019-02-22T06:48:15.927Z,8.50
2019-02-22T06:50:43.687Z,8.50
2019-02-22T06:53:11.473Z,8.50
2019-02-22T06:55:39.273Z,8.50
2019-02-22T06:58:07.362Z,8.50
2019-02-22T07:00:35.346Z,8.50
2019-02-22T07:03:03.092Z,8.50
2019-02-22T07:05:30.862Z,8.50
2019-02-22T07:07:58.854Z,8.50
2019-02-22T07:10:26.835Z,8.60
2019-02-22T07:12:59.007Z,8.60
2019-02-22T07:15:26.808Z,8.60
2019-02-22T07:17:54.551Z,8.60
2019-02-22T07:20:22.342Z,8.70
2019-02-22T07:22:50.123Z,8.70
2019-02-22T07:25:17.953Z,8.70
2019-02-22T07:27:45.805Z,8.60
2019-02-22T07:30:13.680Z,8.60
2019-02-22T07:32:41.755Z,8.60
2019-02-22T07:35:10.004Z,8.70
2019-02-22T07:37:37.796Z,8.70
2019-02-22T07:40:05.905Z,8.70
2019-02-22T07:42:33.667Z,8.70
2019-02-22T07:45:01.445Z,8.70
2019-02-22T07:47:29.376Z,8.70
2019-02-22T07:49:57.195Z,8.70
2019-02-22T07:52:25.066Z,8.70
2019-02-22T07:54:52.891Z,8.70
2019-02-22T07:57:20.894Z,8.70
2019-02-22T07:59:48.623Z,8.60
2019-02-22T08:02:16.589Z,8.60
2019-02-22T08:04:44.384Z,8.50
2019-02-22T08:07:12.377Z,8.40
2019-02-22T08:09:43.991Z,8.30
2019-02-22T08:12:12.080Z,8.30
2019-02-22T08:14:39.911Z,8.30
2019-02-22T08:17:07.715Z,8.40
2019-02-22T08:19:35.483Z,8.40
2019-02-22T08:22:03.698Z,8.30
2019-02-22T08:24:31.495Z,8.30
2019-02-22T08:26:59.269Z,8.40
2019-02-22T08:29:27.289Z,8.30
2019-02-22T08:31:55.098Z,8.30
2019-02-22T08:34:22.828Z,8.30
2019-02-22T08:36:50.596Z,8.30
2019-02-22T08:39:18.355Z,8.30
2019-02-22T08:41:46.153Z,8.30
2019-02-22T08:44:13.961Z,8.30
2019-02-22T08:46:41.764Z,8.20
2019-02-22T08:49:09.519Z,8.20
2019-02-22T08:51:37.359Z,8.20
2019-02-22T08:54:05.528Z,8.10
2019-02-22T08:56:33.325Z,8.00
2019-02-22T08:59:01.075Z,8.00
2019-02-22T09:01:28.826Z,7.90
2019-02-22T09:03:56.557Z,7.90
2019-02-22T09:06:24.408Z,7.90
2019-02-22T09:08:52.215Z,7.80
2019-02-22T09:11:20.042Z,7.70
2019-02-22T09:13:48.051Z,7.60
2019-02-22T09:16:15.932Z,7.40
2019-02-22T09:18:45.281Z,7.30
2019-02-22T09:21:13.126Z,7.30
2019-02-22T09:23:40.877Z,7.40
2019-02-22T09:26:08.702Z,7.40
2019-02-22T09:28:36.528Z,7.40
2019-02-22T09:31:04.309Z,7.40
2019-02-22T09:33:32.198Z,7.50
2019-02-22T09:35:59.968Z,7.70
2019-02-22T09:38:27.744Z,7.70
2019-02-22T09:40:55.534Z,7.90
2019-02-22T09:43:23.259Z,8.00
2019-02-22T09:45:51.046Z,8.20
2019-02-22T09:48:18.809Z,8.20
2019-02-22T09:50:46.571Z,8.10
2019-02-22T09:53:14.340Z,8.00
2019-02-22T09:55:42.126Z,8.00
2019-02-22T09:58:09.885Z,7.90
2019-02-22T10:00:37.641Z,7.80
2019-02-22T10:03:05.404Z,7.80
2019-02-22T10:05:33.145Z,7.90
2019-02-22T10:08:00.923Z,7.90
2019-02-22T10:10:28.676Z,7.90
2019-02-22T10:12:56.457Z,8.00
2019-02-22T10:15:24.277Z,8.00
2019-02-22T10:17:52.041Z,7.90
2019-02-22T10:20:19.854Z,7.90
2019-02-22T10:22:47.703Z,7.80
2019-02-22T10:25:15.561Z,7.80
2019-02-22T10:27:43.355Z,7.90
2019-02-22T10:30:11.158Z,7.80
2019-02-22T10:32:42.843Z,7.80
2019-02-22T10:35:11.718Z,7.90
2019-02-22T10:37:39.528Z,7.90
2019-02-22T10:40:07.461Z,7.80
2019-02-22T10:42:35.247Z,7.70
2019-02-22T10:45:03.267Z,7.70
2019-02-22T10:47:31.031Z,7.50
2019-02-22T10:49:58.838Z,7.40
2019-02-22T10:52:26.606Z,7.30
2019-02-22T10:54:54.357Z,7.20
2019-02-22T10:57:22.159Z,7.10
2019-02-22T10:59:49.942Z,7.00
2019-02-22T11:02:17.777Z,6.90
2019-02-22T11:04:45.540Z,6.90
2019-02-22T11:07:13.784Z,6.90
2019-02-22T11:09:41.576Z,6.90
2019-02-22T11:12:09.360Z,7.00
2019-02-22T11:14:37.165Z,7.10
2019-02-22T11:17:04.964Z,7.20
2019-02-22T11:19:32.777Z,7.20
2019-02-22T11:22:00.540Z,7.10
2019-02-22T11:24:28.373Z,7.10
2019-02-22T11:26:56.149Z,7.00
2019-02-22T11:29:23.911Z,7.00
2019-02-22T11:31:51.932Z,6.90
2019-02-22T11:34:19.692Z,6.90
2019-02-22T11:36:47.559Z,6.90
2019-02-22T11:39:15.331Z,6.90
2019-02-22T11:41:43.145Z,6.80
2019-02-22T11:44:12.282Z,6.70
2019-02-22T11:46:40.363Z,6.60
2019-02-22T11:49:08.140Z,6.70
2019-02-22T11:51:36.359Z,6.60
2019-02-22T11:54:04.103Z,6.60
2019-02-22T11:56:32.226Z,6.60
2019-02-22T11:59:00.027Z,6.50
2019-02-22T12:01:27.913Z,6.60
2019-02-22T12:03:55.778Z,6.50
2019-02-22T12:06:23.612Z,6.60
2019-02-22T12:08:51.469Z,6.60
2019-02-22T12:11:19.311Z,6.60
2019-02-22T12:13:47.147Z,6.40
2019-02-22T12:16:14.957Z,6.40
2019-02-22T12:18:42.767Z,6.40
2019-02-22T12:21:10.864Z,6.40
2019-02-22T12:23:38.658Z,6.30
2019-02-22T12:26:06.501Z,6.40
2019-02-22T12:28:34.230Z,6.40
2019-02-22T12:31:02.397Z,6.40
2019-02-22T12:33:31.342Z,6.40
2019-02-22T12:35:59.055Z,6.40
2019-02-22T12:38:28.250Z,6.40
2019-02-22T12:40:56.193Z,6.30
2019-02-22T12:43:23.967Z,6.10
2019-02-22T12:45:51.692Z,6.00
2019-02-22T12:48:19.499Z,5.90
2019-02-22T12:50:47.233Z,6.00
2019-02-22T12:53:15.015Z,6.00
2019-02-22T12:55:42.761Z,5.90
2019-02-22T12:58:10.851Z,5.90
2019-02-22T13:00:38.671Z,6.00
2019-02-22T13:03:06.438Z,6.10
2019-02-22T13:05:34.277Z,6.10
2019-02-22T13:08:02.056Z,6.00
2019-02-22T13:10:29.801Z,6.00
2019-02-22T13:12:57.581Z,5.90
2019-02-22T13:15:25.361Z,5.80
2019-02-22T13:17:53.175Z,5.90
2019-02-22T13:20:20.938Z,6.00
2019-02-22T13:22:48.774Z,6.10
2019-02-22T13:25:16.528Z,6.10
2019-02-22T13:27:44.372Z,6.20
2019-02-22T13:30:12.244Z,6.10
2019-02-22T13:32:40.025Z,6.10
2019-02-22T13:35:10.696Z,6.00
2019-02-22T13:37:37.804Z,5.90
2019-02-22T13:40:07.744Z,5.80
2019-02-22T13:42:35.640Z,5.70
2019-02-22T13:45:03.775Z,5.70
2019-02-22T13:47:31.570Z,5.70
2019-02-22T13:49:59.353Z,5.70
2019-02-22T13:52:27.207Z,5.70
2019-02-22T13:54:54.990Z,5.70
2019-02-22T13:57:22.814Z,5.60
2019-02-22T13:59:50.613Z,5.50
2019-02-22T14:02:19.764Z,5.30
2019-02-22T14:04:47.573Z,5.10
2019-02-22T14:07:15.356Z,5.00
2019-02-22T14:09:43.126Z,4.90
2019-02-22T14:12:10.955Z,5.00
2019-02-22T14:14:38.717Z,5.00
2019-02-22T14:17:06.482Z,5.00
2019-02-22T14:19:34.241Z,5.00
2019-02-22T14:22:02.026Z,5.00
2019-02-22T14:24:29.801Z,4.80
2019-02-22T14:26:57.579Z,4.80
2019-02-22T14:29:25.348Z,4.80
2019-02-22T14:31:53.157Z,4.70
2019-02-22T14:34:20.961Z,4.70
2019-02-22T14:36:48.852Z,4.70
2019-02-22T14:39:16.620Z,4.70
2019-02-22T14:41:45.564Z,4.70
2019-02-22T14:44:13.341Z,4.80
2019-02-22T14:46:41.130Z,4.70
2019-02-22T14:49:08.894Z,4.50
2019-02-22T14:51:36.628Z,4.40
2019-02-22T14:54:04.410Z,4.40
2019-02-22T14:56:32.176Z,4.50
2019-02-22T14:58:59.956Z,4.50
2019-02-22T15:01:27.716Z,4.50
2019-02-22T15:03:55.524Z,4.60
2019-02-22T15:06:23.310Z,4.60
2019-02-22T15:08:51.168Z,4.60
2019-02-22T15:11:19.018Z,4.60
2019-02-22T15:13:46.875Z,4.60
2019-02-22T15:16:32.977Z,4.60
2019-02-22T15:19:00.783Z,4.60
2019-02-22T15:21:28.551Z,4.70
2019-02-22T15:23:56.289Z,4.70
2019-02-22T15:26:24.060Z,4.60
2019-02-22T15:28:51.861Z,4.60
2019-02-22T15:31:19.598Z,4.70
2019-02-22T15:33:47.383Z,4.70
2019-02-22T15:36:16.102Z,4.70
2019-02-22T15:38:44.156Z,4.50
2019-02-22T15:41:12.005Z,4.50
2019-02-22T15:43:39.861Z,4.50
2019-02-22T15:46:12.134Z,4.40
2019-02-22T15:48:37.375Z,4.40
2019-02-22T15:51:07.251Z,4.10
2019-02-22T15:53:34.786Z,4.10
2019-02-22T15:56:02.573Z,4.10
2019-02-22T15:58:30.329Z,4.10
2019-02-22T16:00:58.105Z,4.00
2019-02-22T16:03:28.118Z,3.90
2019-02-22T16:05:55.913Z,3.80
2019-02-22T16:08:23.702Z,3.70
2019-02-22T16:10:51.486Z,3.60
2019-02-22T16:13:19.273Z,3.50
2019-02-22T16:15:47.204Z,3.50
2019-02-22T16:18:15.029Z,3.40
2019-02-22T16:20:42.843Z,3.30
2019-02-22T16:23:10.613Z,3.30
2019-02-22T16:25:38.452Z,3.20
2019-02-22T16:28:06.181Z,3.10
2019-02-22T16:30:35.393Z,3.10
2019-02-22T16:33:03.234Z,3.00
2019-02-22T16:35:31.001Z,3.00
2019-02-22T16:37:58.781Z,2.90
2019-02-22T16:40:26.544Z,2.90
2019-02-22T16:42:54.292Z,2.80
2019-02-22T16:45:22.198Z,2.80
2019-02-22T16:47:49.958Z,2.70
2019-02-22T16:50:17.713Z,2.60
2019-02-22T16:52:45.582Z,2.60
2019-02-22T16:55:13.874Z,2.60
2019-02-22T16:57:41.628Z,2.60
2019-02-22T17:00:11.567Z,2.60
2019-02-22T17:02:39.327Z,2.60
2019-02-22T17:05:08.976Z,2.50
2019-02-22T17:07:36.735Z,2.50
2019-02-22T17:10:05.391Z,2.50
2019-02-22T17:12:33.128Z,2.40
2019-02-22T17:15:01.045Z,2.40
2019-02-22T17:17:28.804Z,2.40
2019-02-22T17:19:56.581Z,2.40
2019-02-22T17:22:24.352Z,2.40
2019-02-22T17:24:52.301Z,2.40
2019-02-22T17:27:20.089Z,2.40
2019-02-22T17:29:47.835Z,2.40
2019-02-22T17:32:15.612Z,2.30
2019-02-22T17:34:45.477Z,2.30
2019-02-22T17:37:13.386Z,2.30
2019-02-22T17:39:41.294Z,2.20
2019-02-22T17:42:09.249Z,2.20
2019-02-22T17:44:37.019Z,2.20
2019-02-22T17:47:06.578Z,2.20
2019-02-22T17:49:34.670Z,2.10
2019-02-22T17:52:02.599Z,2.20
2019-02-22T17:54:30.362Z,2.20
2019-02-22T17:56:58.167Z,2.20
2019-02-22T17:59:28.304Z,2.20
2019-02-22T18:01:56.253Z,2.10
2019-02-22T18:04:24.045Z,2.10
2019-02-22T18:06:51.991Z,2.10
2019-02-22T18:09:19.967Z,2.20
2019-02-22T18:11:47.880Z,2.10
2019-02-22T18:14:15.660Z,2.10
2019-02-22T18:16:44.576Z,2.10
2019-02-22T18:19:12.320Z,2.10
2019-02-22T18:21:40.054Z,2.10
2019-02-22T18:24:07.863Z,2.00
2019-02-22T18:26:37.683Z,2.10
2019-02-22T18:29:05.290Z,2.20
2019-02-22T18:31:33.182Z,2.20
2019-02-22T18:34:00.938Z,2.20
2019-02-22T18:36:28.764Z,2.20
2019-02-22T18:38:56.577Z,2.30
2019-02-22T18:41:24.343Z,2.30
2019-02-22T18:43:52.106Z,2.30
2019-02-22T18:46:20.303Z,2.20
2019-02-22T18:48:48.016Z,2.20
2019-02-22T18:51:15.855Z,2.10
2019-02-22T18:53:43.588Z,2.00
2019-02-22T18:56:11.385Z,1.90
2019-02-22T18:58:39.144Z,2.00
2019-02-22T19:01:06.954Z,2.00
2019-02-22T19:03:34.701Z,2.00
2019-02-22T19:06:02.513Z,2.00
2019-02-22T19:08:32.637Z,2.10
2019-02-22T19:11:00.635Z,2.00
2019-02-22T19:13:28.429Z,2.00
2019-02-22T19:15:56.175Z,2.00
2019-02-22T19:18:23.960Z,2.00
2019-02-22T19:20:51.779Z,1.90
2019-02-22T19:23:19.542Z,1.90
2019-02-22T19:25:47.355Z,1.90
2019-02-22T19:28:15.871Z,1.90
2019-02-22T19:30:43.681Z,1.90
2019-02-22T19:33:11.432Z,1.90
2019-02-22T19:35:39.238Z,1.90
2019-02-22T19:38:07.002Z,1.90
2019-02-22T19:40:34.814Z,1.80
2019-02-22T19:43:02.596Z,1.70
2019-02-22T19:45:30.374Z,1.70
2019-02-22T19:47:58.184Z,1.60
2019-02-22T19:50:26.009Z,1.60
2019-02-22T19:52:53.790Z,1.50
2019-02-22T19:55:21.680Z,1.50
2019-02-22T19:57:49.456Z,1.40
2019-02-22T20:00:17.241Z,1.40
2019-02-22T20:02:45.073Z,1.40
2019-02-22T20:05:13.076Z,1.40
2019-02-22T20:07:42.522Z,1.30
2019-02-22T20:10:17.890Z,1.30
2019-02-22T20:12:41.860Z,1.20
2019-02-22T20:15:11.657Z,1.20
2019-02-22T20:17:40.334Z,1.20
2019-02-22T20:20:10.961Z,1.20
2019-02-22T20:22:39.624Z,1.20
2019-02-22T20:25:07.484Z,1.10
2019-02-22T20:27:35.335Z,1.10
2019-02-22T20:30:03.299Z,1.00
2019-02-22T20:32:31.141Z,1.00
2019-02-22T20:34:58.966Z,1.00
2019-02-22T20:37:26.776Z,0.90
2019-02-22T20:39:54.613Z,0.90
2019-02-22T20:42:22.477Z,0.90
2019-02-22T20:44:50.272Z,0.90
2019-02-22T20:47:18.152Z,0.80
2019-02-22T20:49:45.981Z,0.80
2019-02-22T20:52:13.853Z,0.80
2019-02-22T20:54:41.652Z,0.80
2019-02-22T20:57:09.453Z,0.80
2019-02-22T20:59:37.359Z,0.70
2019-02-22T21:02:05.180Z,0.80
2019-02-22T21:04:32.989Z,0.80
2019-02-22T21:07:00.798Z,0.80
2019-02-22T21:09:28.634Z,0.80
2019-02-22T21:11:57.163Z,0.70
2019-02-22T21:14:25.027Z,0.70
2019-02-22T21:16:52.861Z,0.70
2019-02-22T21:19:20.709Z,0.70
2019-02-22T21:21:48.502Z,0.60
2019-02-22T21:24:16.311Z,0.60
2019-02-22T21:26:44.117Z,0.60
2019-02-22T21:29:11.934Z,0.60
2019-02-22T21:31:39.825Z,0.60
2019-02-22T21:34:07.641Z,0.60
2019-02-22T21:36:35.438Z,0.60
2019-02-22T21:39:03.840Z,0.60
2019-02-22T21:41:31.612Z,0.60
2019-02-22T21:43:59.410Z,0.50
2019-02-22T21:46:28.870Z,0.50
2019-02-22T21:48:56.773Z,0.50
2019-02-22T21:51:24.524Z,0.50
2019-02-22T21:53:52.312Z,0.50
2019-02-22T21:56:20.084Z,0.50
2019-02-22T21:58:48.855Z,0.50
2019-02-22T22:01:16.852Z,0.50
2019-02-22T22:03:44.618Z,0.50
2019-02-22T22:06:12.434Z,0.50
2019-02-22T22:08:40.218Z,0.50
2019-02-22T22:11:08.040Z,0.50
2019-02-22T22:13:35.837Z,0.40
2019-02-22T22:16:03.671Z,0.40
2019-02-22T22:18:38.508Z,0.40
2019-02-22T22:21:01.179Z,0.40
2019-02-22T22:23:28.967Z,0.40
2019-02-22T22:25:56.738Z,0.30
2019-02-22T22:28:24.525Z,0.30
2019-02-22T22:30:52.341Z,0.30
2019-02-22T22:33:20.116Z,0.30
2019-02-22T22:35:47.908Z,0.20
2019-02-22T22:38:15.695Z,0.20
2019-02-22T22:40:43.463Z,0.20
2019-02-22T22:43:11.686Z,0.20
2019-02-22T22:45:39.517Z,0.10
2019-02-22T22:48:07.291Z,0.10
2019-02-22T22:50:35.064Z,0.10
2019-02-22T22:53:02.845Z,0.10
2019-02-22T22:55:30.632Z,0.10
2019-02-22T22:57:58.401Z,0.10
2019-02-22T23:00:46.639Z,0.10
2019-02-22T23:03:14.526Z,0.10
2019-02-22T23:05:42.325Z,0.10
2019-02-22T23:08:10.077Z,0.10
2019-02-22T23:10:37.886Z,0.10
2019-02-22T23:13:05.632Z,0.00
2019-02-22T23:15:33.424Z,0.00
2019-02-22T23:18:01.196Z,-0.10
2019-02-22T23:20:28.971Z,-0.10
2019-02-22T23:22:56.717Z,-0.10
2019-02-22T23:25:24.519Z,-0.10
2019-02-22T23:27:52.277Z,-0.20
2019-02-22T23:30:20.002Z,-0.10
2019-02-22T23:32:47.796Z,-0.20
2019-02-22T23:35:15.550Z,-0.20
2019-02-22T23:37:43.394Z,-0.30
2019-02-22T23:40:11.171Z,-0.30
2019-02-22T23:42:38.968Z,-0.30
2019-02-22T23:45:06.794Z,-0.30
2019-02-22T23:47:34.644Z,-0.40
2019-02-22T23:52:30.272Z,-0.40
2019-02-22T23:54:58.008Z,-0.50
2019-02-22T23:57:26.566Z,-0.50
2019-02-22T23:59:54.306Z,-0.60
